CheckWX is a tool to help pilots better visualize weather data.  It is not intended as a substitute for an official pre-flight weather briefing.

23:32:34 UTC

KMKL TAF
Mc Kellar-Sipes Regional Airport
Jackson, Tennessee, USA
KMKL 181721Z 1818/1918 09006KT P6SM FEW250 FM190000 12003KT P6SM FEW250 FM191500 14007KT P6SM SCT060 SCT250

Oct-18@
18:00 UTC

Oct-18 @ 18:00 UTC

Oct-19@
00:00 UTC

Oct-19 @ 00:00 UTC

KMKL 181721Z 1818/1918 09006KT P6SM FEW250
Wind
  • 090° at 6 KTS
Cloud Levels
  • Few at 25,000' AGL

Oct-19@
00:00 UTC

Oct-19 @ 00:00 UTC

Oct-19@
15:00 UTC

Oct-19 @ 15:00 UTC

FM190000 12003KT P6SM FEW250

From

From Standard forecast or significant change

Wind
  • 120° at 3 KTS
Cloud Levels
  • Few at 25,000' AGL

Oct-19@
15:00 UTC

Oct-19 @ 15:00 UTC

Oct-19@
18:00 UTC

Oct-19 @ 18:00 UTC

FM191500 14007KT P6SM SCT060 SCT250

From

From Standard forecast or significant change

Wind
  • 140° at 7 KTS
Cloud Levels
  • Scattered at 6,000' AGL
  • Scattered at 25,000' AGL